Centennial — WDB4024 — position and weather

sailwx.info

Track history (hours):
 
Tides and Currents Weather Stations Pressure Air Temp Water Temp Dewpoint Dewpoint Depression Visibility Wind Speed Wind Dir Waves Ship Positions

Centennial

Owner: University of Washington, Friday Harbor Labs, Friday Harbor, WA. More information available from US FCC via Universal Licensing System and Coast Guard Vessel Documentation Center.

Last reported at 2018-Jun-20 04:30 UTC. Time now 2018-Jun-20 05:21 UTC.
Position N 48°33' W 123°01'.

Length 20 m.

Type: Dredging. MMSI: 369277000.

Date/timePositionNaut miles runAvg speedWind from/ knotsBaromVisibWave heightAir tempDewpointWater temp
2018-Jun-20 04:30N 48°33' W 123°01'0 0.0
2018-Jun-20 03:57N 48°33' W 123°01'0 0.0
2018-Jun-20 03:21N 48°33' W 123°01'0 0.0
2018-Jun-20 02:54N 48°33' W 123°01'0 0.0
2018-Jun-20 02:24N 48°33' W 123°01'0 0.0
2018-Jun-20 01:57N 48°33' W 123°01'0 0.0
2018-Jun-20 01:27N 48°33' W 123°01'0 0.0
2018-Jun-20 00:57N 48°33' W 123°01'0 0.0
2018-Jun-20 00:21N 48°33' W 123°01'0 0.0
2018-Jun-19 23:30N 48°33' W 123°01'0 0.0
2018-Jun-19 22:54N 48°33' W 123°01'0 0.0
2018-Jun-19 22:27N 48°33' W 123°01'0 0.0
2018-Jun-19 21:57N 48°33' W 123°01'0 0.0
2018-Jun-19 21:30N 48°33' W 123°01'0 0.0
2018-Jun-19 20:57N 48°33' W 123°01'0 0.0
2018-Jun-19 20:15N 48°33' W 123°01'0 0.1
2018-Jun-19 19:45N 48°33' W 123°01'0 0.1
2018-Jun-19 19:27N 48°33' W 123°01'0 0.0
2018-Jun-19 18:54N 48°33' W 123°01'0 0.0
2018-Jun-19 18:14N 48°33' W 123°01'1 3.0
2018-Jun-19 17:47N 48°33' W 122°59'2 5.9
2018-Jun-19 17:27N 48°33' W 122°56'1 1.2
2018-Jun-19 17:00N 48°33' W 122°55'0 0.8
2018-Jun-19 16:30N 48°33' W 122°56'2 3.1
2018-Jun-19 16:00N 48°33' W 122°58'2 2.1
2018-Jun-19 15:05N 48°33' W 123°01'0 0.0
2018-Jun-19 14:56N 48°33' W 123°01'0 0.0
2018-Jun-19 10:59N 48°33' W 123°01'0 0.0
2018-Jun-19 10:29N 48°33' W 123°01'0 0.0
2018-Jun-19 09:50N 48°33' W 123°01'0 0.0
2018-Jun-19 06:47N 48°33' W 123°01'0 0.0
2018-Jun-19 05:08N 48°33' W 123°01'0 0.0
2018-Jun-19 04:44N 48°33' W 123°01'0 0.0
2018-Jun-19 04:17N 48°33' W 123°01'0 0.0
2018-Jun-19 03:59N 48°33' W 123°01'0 0.0
2018-Jun-19 03:26N 48°33' W 123°01'0 0.0
2018-Jun-19 02:56N 48°33' W 123°01'0 0.0
2018-Jun-19 00:38N 48°33' W 123°01'0 0.0
2018-Jun-19 00:26N 48°33' W 123°01'0 0.0
2018-Jun-18 23:44N 48°33' W 123°01'0 0.0
2018-Jun-18 23:29N 48°33' W 123°01'0 0.0
2018-Jun-18 22:35N 48°33' W 123°01'0 0.0
2018-Jun-18 21:26N 48°33' W 123°01'0 0.0
2018-Jun-18 20:41N 48°33' W 123°01'0 0.0
2018-Jun-18 20:29N 48°33' W 123°01'0 0.0
2018-Jun-18 19:44N 48°33' W 123°01'0 0.0
2018-Jun-18 17:38N 48°33' W 123°01'0 0.0
2018-Jun-18 17:17N 48°33' W 123°01'0 0.0
2018-Jun-18 16:56N 48°33' W 123°01'0 0.0
2018-Jun-18 16:11N 48°33' W 123°01'0 0.0
2018-Jun-18 15:59N 48°33' W 123°01'0 0.0
2018-Jun-18 14:20N 48°33' W 123°01'0 0.0
2018-Jun-18 13:56N 48°33' W 123°01'0 0.0
2018-Jun-18 13:29N 48°33' W 123°01'0 0.0
2018-Jun-18 12:59N 48°33' W 123°01'0 0.0
2018-Jun-18 12:14N 48°33' W 123°01'0 0.0
2018-Jun-18 11:59N 48°33' W 123°01'0 0.0
2018-Jun-18 11:20N 48°33' W 123°01'0 0.0
2018-Jun-18 10:56N 48°33' W 123°01'0 0.0
2018-Jun-18 10:20N 48°33' W 123°01'0 0.0
2018-Jun-18 09:59N 48°33' W 123°01'0 0.0
2018-Jun-18 09:14N 48°33' W 123°01'0 0.0
2018-Jun-18 08:50N 48°33' W 123°01'0 0.0
2018-Jun-18 08:20N 48°33' W 123°01'0 0.0
2018-Jun-18 07:47N 48°33' W 123°01'0 0.0
2018-Jun-18 07:20N 48°33' W 123°01'0 0.0
2018-Jun-18 06:56N 48°33' W 123°01'0 0.0
2018-Jun-18 06:14N 48°33' W 123°01'0 0.0
2018-Jun-18 05:38N 48°33' W 123°01'0 0.0
2018-Jun-18 05:17N 48°33' W 123°01'0 0.0
2018-Jun-18 04:47N 48°33' W 123°01'0 0.0
2018-Jun-18 03:14N 48°33' W 123°01'0 0.0
2018-Jun-18 02:59N 48°33' W 123°01'0 0.0
2018-Jun-18 02:29N 48°33' W 123°01'0 0.0
2018-Jun-18 01:56N 48°33' W 123°01'0 0.0
2018-Jun-18 01:29N 48°33' W 123°01'0 0.0
2018-Jun-17 23:08N 48°33' W 123°01'0 0.0
2018-Jun-17 22:50N 48°33' W 123°01'0 0.0
2018-Jun-17 22:14N 48°33' W 123°01'0 0.0
2018-Jun-17 21:11N 48°33' W 123°01'0 0.0
2018-Jun-17 20:47N 48°33' W 123°01'0 0.0
2018-Jun-17 20:17N 48°33' W 123°01'0 0.0
2018-Jun-17 19:47N 48°33' W 123°01'0 0.0
2018-Jun-17 19:29N 48°33' W 123°01'0 0.0
2018-Jun-17 18:50N 48°33' W 123°01'0 0.0
2018-Jun-17 17:11N 48°33' W 123°01'0 0.0
2018-Jun-17 15:26N 48°33' W 123°01'0 0.0
2018-Jun-17 14:50N 48°33' W 123°01'0 0.0
2018-Jun-17 14:20N 48°33' W 123°01'0 0.0
2018-Jun-17 13:56N 48°33' W 123°01'0 0.0
2018-Jun-17 13:26N 48°33' W 123°01'0 0.0
2018-Jun-17 12:56N 48°33' W 123°01'0 0.0
2018-Jun-17 12:20N 48°33' W 123°01'0 0.0
2018-Jun-17 10:56N 48°33' W 123°01'0 0.0
2018-Jun-17 09:29N 48°33' W 123°01'0 0.0
2018-Jun-17 08:47N 48°33' W 123°01'0 0.0
2018-Jun-17 08:29N 48°33' W 123°01'0 0.0
2018-Jun-17 07:08N 48°33' W 123°01'0 0.0
2018-Jun-17 06:56N 48°33' W 123°01'0 0.0
2018-Jun-17 06:08N 48°33' W 123°01'0 0.0
2018-Jun-17 05:41N 48°33' W 123°01'0 0.0
2018-Jun-17 03:35N 48°33' W 123°01'0 0.0
2018-Jun-17 03:26N 48°33' W 123°01'0 0.0
2018-Jun-17 02:56N 48°33' W 123°01'0 0.0
2018-Jun-16 02:09N 48°33' W 123°01'0 0.0
2018-Jun-16 02:00N 48°33' W 123°01'0 0.0
2018-Jun-16 01:27N 48°33' W 123°01'0 0.0
2018-Jun-16 01:00N 48°33' W 123°01'0 0.0
2018-Jun-16 00:24N 48°33' W 123°01'0 0.0
2018-Jun-16 00:00N 48°33' W 123°01'0 0.0
2018-Jun-15 23:30N 48°33' W 123°01'0 0.0
2018-Jun-15 22:45N 48°33' W 123°01'0 0.0
2018-Jun-15 22:06N 48°33' W 123°01'0 0.0
2018-Jun-15 21:48N 48°33' W 123°01'0 0.0
2018-Jun-15 20:24N 48°33' W 123°01'0 0.0
2018-Jun-15 19:36N 48°33' W 123°01'0 0.0
2018-Jun-15 17:24N 48°33' W 123°01'0 0.0
2018-Jun-15 16:48N 48°33' W 123°01'0 0.0
2018-Jun-15 16:27N 48°33' W 123°01'0 0.0
2018-Jun-15 16:00N 48°33' W 123°01'0 0.0
2018-Jun-15 15:30N 48°33' W 123°01'0 0.0
2018-Jun-15 14:54N 48°33' W 123°01'0 0.0
2018-Jun-15 13:57N 48°33' W 123°01'0 0.0
2018-Jun-15 12:57N 48°33' W 123°01'0 0.0
2018-Jun-15 12:30N 48°33' W 123°01'0 0.0
2018-Jun-15 12:00N 48°33' W 123°01'0 0.0
2018-Jun-15 11:27N 48°33' W 123°01'0 0.0
2018-Jun-15 10:48N 48°33' W 123°01'0 0.0
2018-Jun-15 10:24N 48°33' W 123°01'0 0.0
2018-Jun-15 09:27N 48°33' W 123°01'0 0.0
2018-Jun-15 08:54N 48°33' W 123°01'0 0.0
2018-Jun-15 08:09N 48°33' W 123°01'0 0.0
2018-Jun-15 07:45N 48°33' W 123°01'0 0.0
2018-Jun-15 07:30N 48°33' W 123°01'0 0.0
2018-Jun-15 06:00N 48°33' W 123°01'0 0.0
2018-Jun-15 04:57N 48°33' W 123°01'0 0.0
2018-Jun-15 03:15N 48°33' W 123°01'0 0.0
2018-Jun-15 03:00N 48°33' W 123°01'0 0.0
2018-Jun-15 01:51N 48°33' W 123°01'0 0.0
2018-Jun-15 00:39N 48°33' W 123°01'0 0.0
2018-Jun-14 23:51N 48°33' W 123°01'0 0.0
2018-Jun-14 23:24N 48°33' W 123°01'0 0.0
2018-Jun-14 22:51N 48°33' W 123°01'0 0.0
2018-Jun-14 22:30N 48°33' W 123°01'0 0.0
2018-Jun-14 21:51N 48°33' W 123°01'0 0.0
2018-Jun-14 21:24N 48°33' W 123°01'0 0.0
2018-Jun-14 20:57N 48°33' W 123°01'0 0.0
2018-Jun-14 20:30N 48°33' W 123°01'0 0.0
2018-Jun-14 17:00N 48°33' W 123°01'0 0.0
2018-Jun-14 15:51N 48°33' W 123°01'0 0.0
2018-Jun-14 15:24N 48°33' W 123°01'0 0.0
2018-Jun-14 14:54N 48°33' W 123°01'0 0.0
2018-Jun-14 12:45N 48°33' W 123°01'0 0.0
2018-Jun-14 10:36N 48°33' W 123°01'0 0.0
2018-Jun-14 08:15N 48°33' W 123°01'0 0.0
2018-Jun-14 07:51N 48°33' W 123°01'0 0.0
2018-Jun-14 07:30N 48°33' W 123°01'0 0.0
2018-Jun-14 06:57N 48°33' W 123°01'0 0.0
2018-Jun-14 06:30N 48°33' W 123°01'0 0.0
2018-Jun-14 05:57N 48°33' W 123°01'0 0.0
2018-Jun-14 05:21N 48°33' W 123°01'0 0.0
2018-Jun-14 04:45N 48°33' W 123°01'0 0.0
2018-Jun-14 04:09N 48°33' W 123°01'0 0.0
2018-Jun-14 03:54N 48°33' W 123°01'0 0.0
2018-Jun-14 03:30N 48°33' W 123°01'0 0.0
2018-Jun-14 00:15N 48°33' W 123°01'0 0.0
2018-Jun-13 23:45N 48°33' W 123°01'0 0.0
2018-Jun-13 23:30N 48°33' W 123°01'0 0.0
2018-Jun-13 23:00N 48°33' W 123°01'0 0.0
2018-Jun-13 22:30N 48°33' W 123°01'0 0.0
2018-Jun-13 21:36N 48°33' W 123°01'0 0.0
2018-Jun-13 21:27N 48°33' W 123°01'0 0.0
2018-Jun-13 20:48N 48°33' W 123°01'0 0.0
2018-Jun-13 17:57N 48°33' W 123°01'0 0.0
2018-Jun-13 17:27N 48°33' W 123°01'0 0.0
2018-Jun-13 17:00N 48°33' W 123°01'0 0.0
2018-Jun-13 15:45N 48°33' W 123°01'0 0.0
2018-Jun-13 15:06N 48°33' W 123°01'0 0.0
2018-Jun-13 15:00N 48°33' W 123°01'0 0.0
2018-Jun-13 12:15N 48°33' W 123°01'0 0.0
2018-Jun-13 11:48N 48°33' W 123°01'0 0.0
2018-Jun-13 11:27N 48°33' W 123°01'0 0.0
2018-Jun-13 10:57N 48°33' W 123°01'0 0.0
2018-Jun-13 10:27N 48°33' W 123°01'0 0.0
2018-Jun-13 10:00N 48°33' W 123°01'0 0.0
2018-Jun-13 09:18N 48°33' W 123°01'0 0.0
2018-Jun-13 08:57N 48°33' W 123°01'0 0.0
2018-Jun-13 07:00N 48°33' W 123°01'0 0.0
2018-Jun-13 06:30N 48°33' W 123°01'0 0.0
2018-Jun-13 05:57N 48°33' W 123°01'0 0.0
2018-Jun-13 05:30N 48°33' W 123°01'0 0.0
2018-Jun-13 05:00N 48°33' W 123°01'0 0.0
2018-Jun-13 04:30N 48°33' W 123°01'0 0.0
2018-Jun-13 04:00N 48°33' W 123°01'0 0.0
2018-Jun-13 03:24N 48°33' W 123°01'0 0.0
2018-Jun-13 03:00N 48°33' W 123°01'0 0.0
2018-Jun-13 01:21N 48°33' W 123°01'0 0.0
2018-Jun-12 23:30N 48°33' W 123°01'0 0.0
2018-Jun-12 23:00N 48°33' W 123°01'0 0.0
2018-Jun-12 22:30N 48°33' W 123°01'0 0.0
2018-Jun-12 22:00N 48°33' W 123°01'0 0.0
2018-Jun-12 21:27N 48°33' W 123°01'0 0.0
2018-Jun-12 20:06N 48°33' W 123°01'0 0.0
2018-Jun-12 20:00N 48°33' W 123°01'0 0.1
2018-Jun-12 19:25N 48°33' W 123°01'1 2.7
2018-Jun-12 18:59N 48°32' W 122°59'2 2.9
2018-Jun-12 18:28N 48°31' W 122°58'2 3.1
2018-Jun-12 17:50N 48°29' W 122°57'0 0.6
2018-Jun-12 17:21N 48°29' W 122°57'1 2.5
2018-Jun-12 16:50N 48°30' W 122°57'0 0.8
2018-Jun-12 16:29N 48°31' W 122°57'1 2.7
2018-Jun-12 15:59N 48°32' W 122°58'2 2.4
2018-Jun-12 15:10N 48°33' W 123°01'0 0.0
2018-Jun-12 14:58N 48°33' W 123°01'0 0.0
2018-Jun-12 14:16N 48°33' W 123°01'0 0.0
2018-Jun-12 13:49N 48°33' W 123°01'0 0.0
2018-Jun-12 13:28N 48°33' W 123°01'0 0.0
2018-Jun-12 12:58N 48°33' W 123°01'0 0.0
2018-Jun-12 12:19N 48°33' W 123°01'0 0.0
2018-Jun-12 11:58N 48°33' W 123°01'0 0.0
2018-Jun-12 11:19N 48°33' W 123°01'0 0.0
2018-Jun-12 10:58N 48°33' W 123°01'0 0.0
2018-Jun-12 10:25N 48°33' W 123°01'0 0.0
2018-Jun-12 09:58N 48°33' W 123°01'0 0.0
2018-Jun-12 09:19N 48°33' W 123°01'0 0.0
2018-Jun-12 08:04N 48°33' W 123°01'0 0.0
2018-Jun-12 07:59N 48°33' W 123°01'0 0.0
2018-Jun-12 07:25N 48°33' W 123°01'0 0.0
2018-Jun-12 06:35N 48°33' W 123°01'0 0.0
2018-Jun-12 06:28N 48°33' W 123°01'0 0.0
2018-Jun-12 05:58N 48°33' W 123°01'0 0.0
2018-Jun-12 05:11N 48°33' W 123°01'0 0.0
2018-Jun-12 04:47N 48°33' W 123°01'0 0.0
2018-Jun-12 04:20N 48°33' W 123°01'0 0.0
2018-Jun-12 03:35N 48°33' W 123°01'0 0.0
2018-Jun-12 03:29N 48°33' W 123°01'0 0.0
2018-Jun-12 02:35N 48°33' W 123°01'0 0.0
2018-Jun-12 02:17N 48°33' W 123°01'0 0.0
2018-Jun-12 01:44N 48°33' W 123°01'0 0.0
2018-Jun-12 01:17N 48°33' W 123°01'0 0.0
2018-Jun-12 00:50N 48°33' W 123°01'0 0.0
2018-Jun-12 00:29N 48°33' W 123°01'0 0.0
2018-Jun-11 23:50N 48°33' W 123°01'0 0.0
2018-Jun-11 23:26N 48°33' W 123°01'0 0.0
2018-Jun-11 22:59N 48°33' W 123°01'0 0.0
2018-Jun-11 22:29N 48°33' W 123°01'0 0.0
2018-Jun-11 21:56N 48°33' W 123°01'0 0.0
2018-Jun-11 21:17N 48°33' W 123°01'0 0.0
2018-Jun-11 20:59N 48°33' W 123°01'0 0.0
2018-Jun-11 20:20N 48°33' W 123°01'0 0.0
2018-Jun-11 19:29N 48°33' W 123°01'0 0.0
2018-Jun-11 18:59N 48°33' W 123°01'0 0.0
2018-Jun-11 17:35N 48°33' W 123°01'0 0.0
2018-Jun-11 17:17N 48°33' W 123°01'0 0.0
2018-Jun-11 16:08N 48°33' W 123°01'0 0.0
2018-Jun-11 15:59N 48°33' W 123°01'0 0.0
2018-Jun-11 15:29N 48°33' W 123°01'0 0.0
2018-Jun-11 14:44N 48°33' W 123°01'0 0.0
2018-Jun-11 12:50N 48°33' W 123°01'0 0.0
2018-Jun-11 12:26N 48°33' W 123°01'0 0.0
2018-Jun-11 11:59N 48°33' W 123°01'0 0.0
2018-Jun-11 11:26N 48°33' W 123°01'0 0.0
2018-Jun-11 10:50N 48°33' W 123°01'0 0.0
2018-Jun-11 10:14N 48°33' W 123°01'0 0.0
2018-Jun-11 09:11N 48°33' W 123°01'0 0.0
2018-Jun-11 07:20N 48°33' W 123°01'0 0.0
2018-Jun-11 04:41N 48°33' W 123°01'0 0.0
2018-Jun-11 04:14N 48°33' W 123°01'0 0.0
2018-Jun-11 02:41N 48°33' W 123°01'0 0.0
2018-Jun-11 02:29N 48°33' W 123°01'0 0.0
2018-Jun-11 01:56N 48°33' W 123°01'0 0.0
2018-Jun-11 00:29N 48°33' W 123°01'0 0.0
2018-Jun-10 23:59N 48°33' W 123°01'0 0.0
2018-Jun-10 22:26N 48°33' W 123°01'0 0.0
2018-Jun-10 21:59N 48°33' W 123°01'0 0.0
2018-Jun-10 21:29N 48°33' W 123°01'0 0.0
2018-Jun-10 20:59N 48°33' W 123°01'0 0.0
2018-Jun-10 20:29N 48°33' W 123°01'0 0.0
2018-Jun-10 19:50N 48°33' W 123°01'0 0.0
2018-Jun-10 19:29N 48°33' W 123°01'0 0.0
2018-Jun-10 16:47N 48°33' W 123°01'0 0.0
2018-Jun-10 15:50N 48°33' W 123°01'0 0.0
2018-Jun-10 14:41N 48°33' W 123°01'0 0.0
2018-Jun-10 13:59N 48°33' W 123°01'0 0.0
2018-Jun-10 12:35N 48°33' W 123°01'0 0.0
2018-Jun-10 11:47N 48°33' W 123°01'0 0.0
2018-Jun-10 11:29N 48°33' W 123°01'0 0.0
2018-Jun-10 10:56N 48°33' W 123°01'0 0.0
2018-Jun-10 09:47N 48°33' W 123°01'0 0.0
2018-Jun-10 09:29N 48°33' W 123°01'0 0.0
2018-Jun-10 08:59N 48°33' W 123°01'0 0.0
2018-Jun-10 08:11N 48°33' W 123°01'0 0.0
2018-Jun-10 07:17N 48°33' W 123°01'0 0.0
2018-Jun-10 06:59N 48°33' W 123°01'0 0.0
2018-Jun-10 06:29N 48°33' W 123°01'0 0.0
2018-Jun-10 05:59N 48°33' W 123°01'0 0.0
2018-Jun-10 05:26N 48°33' W 123°01'0 0.0
2018-Jun-10 04:59N 48°33' W 123°01'  
Track history (hours):
 
Tides and Currents Weather Stations Pressure Air Temp Water Temp Dewpoint Dewpoint Depression Visibility Wind Speed Wind Dir Waves Ship Positions

Centennial

Owner: University of Washington, Friday Harbor Labs, Friday Harbor, WA. More information available from US FCC via Universal Licensing System and Coast Guard Vessel Documentation Center.

Last reported at 2018-Jun-20 04:30 UTC. Time now 2018-Jun-20 05:21 UTC.
Position N 48°33' W 123°01'.

Length 20 m.

Type: Dredging. MMSI: 369277000.

Date/timePositionNaut miles runAvg speedWind from/ knotsBaromVisibWave heightAir tempDewpointWater temp
2018-Jun-20 04:30N 48°33' W 123°01'0 0.0
2018-Jun-20 03:57N 48°33' W 123°01'0 0.0
2018-Jun-20 03:21N 48°33' W 123°01'0 0.0
2018-Jun-20 02:54N 48°33' W 123°01'0 0.0
2018-Jun-20 02:24N 48°33' W 123°01'0 0.0
2018-Jun-20 01:57N 48°33' W 123°01'0 0.0
2018-Jun-20 01:27N 48°33' W 123°01'0 0.0
2018-Jun-20 00:57N 48°33' W 123°01'0 0.0
2018-Jun-20 00:21N 48°33' W 123°01'0 0.0
2018-Jun-19 23:30N 48°33' W 123°01'0 0.0
2018-Jun-19 22:54N 48°33' W 123°01'0 0.0
2018-Jun-19 22:27N 48°33' W 123°01'0 0.0
2018-Jun-19 21:57N 48°33' W 123°01'0 0.0
2018-Jun-19 21:30N 48°33' W 123°01'0 0.0
2018-Jun-19 20:57N 48°33' W 123°01'0 0.0
2018-Jun-19 20:15N 48°33' W 123°01'0 0.1
2018-Jun-19 19:45N 48°33' W 123°01'0 0.1
2018-Jun-19 19:27N 48°33' W 123°01'0 0.0
2018-Jun-19 18:54N 48°33' W 123°01'0 0.0
2018-Jun-19 18:14N 48°33' W 123°01'1 3.0
2018-Jun-19 17:47N 48°33' W 122°59'2 5.9
2018-Jun-19 17:27N 48°33' W 122°56'1 1.2
2018-Jun-19 17:00N 48°33' W 122°55'0 0.8
2018-Jun-19 16:30N 48°33' W 122°56'2 3.1
2018-Jun-19 16:00N 48°33' W 122°58'2 2.1
2018-Jun-19 15:05N 48°33' W 123°01'0 0.0
2018-Jun-19 14:56N 48°33' W 123°01'0 0.0
2018-Jun-19 10:59N 48°33' W 123°01'0 0.0
2018-Jun-19 10:29N 48°33' W 123°01'0 0.0
2018-Jun-19 09:50N 48°33' W 123°01'0 0.0
2018-Jun-19 06:47N 48°33' W 123°01'0 0.0
2018-Jun-19 05:08N 48°33' W 123°01'0 0.0
2018-Jun-19 04:44N 48°33' W 123°01'0 0.0
2018-Jun-19 04:17N 48°33' W 123°01'0 0.0
2018-Jun-19 03:59N 48°33' W 123°01'0 0.0
2018-Jun-19 03:26N 48°33' W 123°01'0 0.0
2018-Jun-19 02:56N 48°33' W 123°01'0 0.0
2018-Jun-19 00:38N 48°33' W 123°01'0 0.0
2018-Jun-19 00:26N 48°33' W 123°01'0 0.0
2018-Jun-18 23:44N 48°33' W 123°01'0 0.0
2018-Jun-18 23:29N 48°33' W 123°01'0 0.0
2018-Jun-18 22:35N 48°33' W 123°01'0 0.0
2018-Jun-18 21:26N 48°33' W 123°01'0 0.0
2018-Jun-18 20:41N 48°33' W 123°01'0 0.0
2018-Jun-18 20:29N 48°33' W 123°01'0 0.0
2018-Jun-18 19:44N 48°33' W 123°01'0 0.0
2018-Jun-18 17:38N 48°33' W 123°01'0 0.0
2018-Jun-18 17:17N 48°33' W 123°01'0 0.0
2018-Jun-18 16:56N 48°33' W 123°01'0 0.0
2018-Jun-18 16:11N 48°33' W 123°01'0 0.0
2018-Jun-18 15:59N 48°33' W 123°01'0 0.0
2018-Jun-18 14:20N 48°33' W 123°01'0 0.0
2018-Jun-18 13:56N 48°33' W 123°01'0 0.0
2018-Jun-18 13:29N 48°33' W 123°01'0 0.0
2018-Jun-18 12:59N 48°33' W 123°01'0 0.0
2018-Jun-18 12:14N 48°33' W 123°01'0 0.0
2018-Jun-18 11:59N 48°33' W 123°01'0 0.0
2018-Jun-18 11:20N 48°33' W 123°01'0 0.0
2018-Jun-18 10:56N 48°33' W 123°01'0 0.0
2018-Jun-18 10:20N 48°33' W 123°01'0 0.0
2018-Jun-18 09:59N 48°33' W 123°01'0 0.0
2018-Jun-18 09:14N 48°33' W 123°01'0 0.0
2018-Jun-18 08:50N 48°33' W 123°01'0 0.0
2018-Jun-18 08:20N 48°33' W 123°01'0 0.0
2018-Jun-18 07:47N 48°33' W 123°01'0 0.0
2018-Jun-18 07:20N 48°33' W 123°01'0 0.0
2018-Jun-18 06:56N 48°33' W 123°01'0 0.0
2018-Jun-18 06:14N 48°33' W 123°01'0 0.0
2018-Jun-18 05:38N 48°33' W 123°01'0 0.0
2018-Jun-18 05:17N 48°33' W 123°01'0 0.0
2018-Jun-18 04:47N 48°33' W 123°01'0 0.0
2018-Jun-18 03:14N 48°33' W 123°01'0 0.0
2018-Jun-18 02:59N 48°33' W 123°01'0 0.0
2018-Jun-18 02:29N 48°33' W 123°01'0 0.0
2018-Jun-18 01:56N 48°33' W 123°01'0 0.0
2018-Jun-18 01:29N 48°33' W 123°01'0 0.0
2018-Jun-17 23:08N 48°33' W 123°01'0 0.0
2018-Jun-17 22:50N 48°33' W 123°01'0 0.0
2018-Jun-17 22:14N 48°33' W 123°01'0 0.0
2018-Jun-17 21:11N 48°33' W 123°01'0 0.0
2018-Jun-17 20:47N 48°33' W 123°01'0 0.0
2018-Jun-17 20:17N 48°33' W 123°01'0 0.0
2018-Jun-17 19:47N 48°33' W 123°01'0 0.0
2018-Jun-17 19:29N 48°33' W 123°01'0 0.0
2018-Jun-17 18:50N 48°33' W 123°01'0 0.0
2018-Jun-17 17:11N 48°33' W 123°01'0 0.0
2018-Jun-17 15:26N 48°33' W 123°01'0 0.0
2018-Jun-17 14:50N 48°33' W 123°01'0 0.0
2018-Jun-17 14:20N 48°33' W 123°01'0 0.0
2018-Jun-17 13:56N 48°33' W 123°01'0 0.0
2018-Jun-17 13:26N 48°33' W 123°01'0 0.0
2018-Jun-17 12:56N 48°33' W 123°01'0 0.0
2018-Jun-17 12:20N 48°33' W 123°01'0 0.0
2018-Jun-17 10:56N 48°33' W 123°01'0 0.0
2018-Jun-17 09:29N 48°33' W 123°01'0 0.0
2018-Jun-17 08:47N 48°33' W 123°01'0 0.0
2018-Jun-17 08:29N 48°33' W 123°01'0 0.0
2018-Jun-17 07:08N 48°33' W 123°01'0 0.0
2018-Jun-17 06:56N 48°33' W 123°01'0 0.0
2018-Jun-17 06:08N 48°33' W 123°01'0 0.0
2018-Jun-17 05:41N 48°33' W 123°01'0 0.0
2018-Jun-17 03:35N 48°33' W 123°01'0 0.0
2018-Jun-17 03:26N 48°33' W 123°01'0 0.0
2018-Jun-17 02:56N 48°33' W 123°01'0 0.0
2018-Jun-16 02:09N 48°33' W 123°01'0 0.0
2018-Jun-16 02:00N 48°33' W 123°01'0 0.0
2018-Jun-16 01:27N 48°33' W 123°01'0 0.0
2018-Jun-16 01:00N 48°33' W 123°01'0 0.0
2018-Jun-16 00:24N 48°33' W 123°01'0 0.0
2018-Jun-16 00:00N 48°33' W 123°01'0 0.0
2018-Jun-15 23:30N 48°33' W 123°01'0 0.0
2018-Jun-15 22:45N 48°33' W 123°01'0 0.0
2018-Jun-15 22:06N 48°33' W 123°01'0 0.0
2018-Jun-15 21:48N 48°33' W 123°01'0 0.0
2018-Jun-15 20:24N 48°33' W 123°01'0 0.0
2018-Jun-15 19:36N 48°33' W 123°01'0 0.0
2018-Jun-15 17:24N 48°33' W 123°01'0 0.0
2018-Jun-15 16:48N 48°33' W 123°01'0 0.0
2018-Jun-15 16:27N 48°33' W 123°01'0 0.0
2018-Jun-15 16:00N 48°33' W 123°01'0 0.0
2018-Jun-15 15:30N 48°33' W 123°01'0 0.0
2018-Jun-15 14:54N 48°33' W 123°01'0 0.0
2018-Jun-15 13:57N 48°33' W 123°01'0 0.0
2018-Jun-15 12:57N 48°33' W 123°01'0 0.0
2018-Jun-15 12:30N 48°33' W 123°01'0 0.0
2018-Jun-15 12:00N 48°33' W 123°01'0 0.0
2018-Jun-15 11:27N 48°33' W 123°01'0 0.0
2018-Jun-15 10:48N 48°33' W 123°01'0 0.0
2018-Jun-15 10:24N 48°33' W 123°01'0 0.0
2018-Jun-15 09:27N 48°33' W 123°01'0 0.0
2018-Jun-15 08:54N 48°33' W 123°01'0 0.0
2018-Jun-15 08:09N 48°33' W 123°01'0 0.0
2018-Jun-15 07:45N 48°33' W 123°01'0 0.0
2018-Jun-15 07:30N 48°33' W 123°01'0 0.0
2018-Jun-15 06:00N 48°33' W 123°01'0 0.0
2018-Jun-15 04:57N 48°33' W 123°01'0 0.0
2018-Jun-15 03:15N 48°33' W 123°01'0 0.0
2018-Jun-15 03:00N 48°33' W 123°01'0 0.0
2018-Jun-15 01:51N 48°33' W 123°01'0 0.0
2018-Jun-15 00:39N 48°33' W 123°01'0 0.0
2018-Jun-14 23:51N 48°33' W 123°01'0 0.0
2018-Jun-14 23:24N 48°33' W 123°01'0 0.0
2018-Jun-14 22:51N 48°33' W 123°01'0 0.0
2018-Jun-14 22:30N 48°33' W 123°01'0 0.0
2018-Jun-14 21:51N 48°33' W 123°01'0 0.0
2018-Jun-14 21:24N 48°33' W 123°01'0 0.0
2018-Jun-14 20:57N 48°33' W 123°01'0 0.0
2018-Jun-14 20:30N 48°33' W 123°01'0 0.0
2018-Jun-14 17:00N 48°33' W 123°01'0 0.0
2018-Jun-14 15:51N 48°33' W 123°01'0 0.0
2018-Jun-14 15:24N 48°33' W 123°01'0 0.0
2018-Jun-14 14:54N 48°33' W 123°01'0 0.0
2018-Jun-14 12:45N 48°33' W 123°01'0 0.0
2018-Jun-14 10:36N 48°33' W 123°01'0 0.0
2018-Jun-14 08:15N 48°33' W 123°01'0 0.0
2018-Jun-14 07:51N 48°33' W 123°01'0 0.0
2018-Jun-14 07:30N 48°33' W 123°01'0 0.0
2018-Jun-14 06:57N 48°33' W 123°01'0 0.0
2018-Jun-14 06:30N 48°33' W 123°01'0 0.0
2018-Jun-14 05:57N 48°33' W 123°01'0 0.0
2018-Jun-14 05:21N 48°33' W 123°01'0 0.0
2018-Jun-14 04:45N 48°33' W 123°01'0 0.0
2018-Jun-14 04:09N 48°33' W 123°01'0 0.0
2018-Jun-14 03:54N 48°33' W 123°01'0 0.0
2018-Jun-14 03:30N 48°33' W 123°01'0 0.0
2018-Jun-14 00:15N 48°33' W 123°01'0 0.0
2018-Jun-13 23:45N 48°33' W 123°01'0 0.0
2018-Jun-13 23:30N 48°33' W 123°01'0 0.0
2018-Jun-13 23:00N 48°33' W 123°01'0 0.0
2018-Jun-13 22:30N 48°33' W 123°01'0 0.0
2018-Jun-13 21:36N 48°33' W 123°01'0 0.0
2018-Jun-13 21:27N 48°33' W 123°01'0 0.0
2018-Jun-13 20:48N 48°33' W 123°01'0 0.0
2018-Jun-13 17:57N 48°33' W 123°01'0 0.0
2018-Jun-13 17:27N 48°33' W 123°01'0 0.0
2018-Jun-13 17:00N 48°33' W 123°01'0 0.0
2018-Jun-13 15:45N 48°33' W 123°01'0 0.0
2018-Jun-13 15:06N 48°33' W 123°01'0 0.0
2018-Jun-13 15:00N 48°33' W 123°01'0 0.0
2018-Jun-13 12:15N 48°33' W 123°01'0 0.0
2018-Jun-13 11:48N 48°33' W 123°01'0 0.0
2018-Jun-13 11:27N 48°33' W 123°01'0 0.0
2018-Jun-13 10:57N 48°33' W 123°01'0 0.0
2018-Jun-13 10:27N 48°33' W 123°01'0 0.0
2018-Jun-13 10:00N 48°33' W 123°01'0 0.0
2018-Jun-13 09:18N 48°33' W 123°01'0 0.0
2018-Jun-13 08:57N 48°33' W 123°01'0 0.0
2018-Jun-13 07:00N 48°33' W 123°01'0 0.0
2018-Jun-13 06:30N 48°33' W 123°01'0 0.0
2018-Jun-13 05:57N 48°33' W 123°01'0 0.0
2018-Jun-13 05:30N 48°33' W 123°01'0 0.0
2018-Jun-13 05:00N 48°33' W 123°01'0 0.0
2018-Jun-13 04:30N 48°33' W 123°01'0 0.0
2018-Jun-13 04:00N 48°33' W 123°01'0 0.0
2018-Jun-13 03:24N 48°33' W 123°01'0 0.0
2018-Jun-13 03:00N 48°33' W 123°01'0 0.0
2018-Jun-13 01:21N 48°33' W 123°01'0 0.0
2018-Jun-12 23:30N 48°33' W 123°01'0 0.0
2018-Jun-12 23:00N 48°33' W 123°01'0 0.0
2018-Jun-12 22:30N 48°33' W 123°01'0 0.0
2018-Jun-12 22:00N 48°33' W 123°01'0 0.0
2018-Jun-12 21:27N 48°33' W 123°01'0 0.0
2018-Jun-12 20:06N 48°33' W 123°01'0 0.0
2018-Jun-12 20:00N 48°33' W 123°01'0 0.1
2018-Jun-12 19:25N 48°33' W 123°01'1 2.7
2018-Jun-12 18:59N 48°32' W 122°59'2 2.9
2018-Jun-12 18:28N 48°31' W 122°58'2 3.1
2018-Jun-12 17:50N 48°29' W 122°57'0 0.6
2018-Jun-12 17:21N 48°29' W 122°57'1 2.5
2018-Jun-12 16:50N 48°30' W 122°57'0 0.8
2018-Jun-12 16:29N 48°31' W 122°57'1 2.7
2018-Jun-12 15:59N 48°32' W 122°58'2 2.4
2018-Jun-12 15:10N 48°33' W 123°01'0 0.0
2018-Jun-12 14:58N 48°33' W 123°01'0 0.0
2018-Jun-12 14:16N 48°33' W 123°01'0 0.0
2018-Jun-12 13:49N 48°33' W 123°01'0 0.0
2018-Jun-12 13:28N 48°33' W 123°01'0 0.0
2018-Jun-12 12:58N 48°33' W 123°01'0 0.0
2018-Jun-12 12:19N 48°33' W 123°01'0 0.0
2018-Jun-12 11:58N 48°33' W 123°01'0 0.0
2018-Jun-12 11:19N 48°33' W 123°01'0 0.0
2018-Jun-12 10:58N 48°33' W 123°01'0 0.0
2018-Jun-12 10:25N 48°33' W 123°01'0 0.0
2018-Jun-12 09:58N 48°33' W 123°01'0 0.0
2018-Jun-12 09:19N 48°33' W 123°01'0 0.0
2018-Jun-12 08:04N 48°33' W 123°01'0 0.0
2018-Jun-12 07:59N 48°33' W 123°01'0 0.0
2018-Jun-12 07:25N 48°33' W 123°01'0 0.0
2018-Jun-12 06:35N 48°33' W 123°01'0 0.0
2018-Jun-12 06:28N 48°33' W 123°01'0 0.0
2018-Jun-12 05:58N 48°33' W 123°01'0 0.0
2018-Jun-12 05:11N 48°33' W 123°01'0 0.0
2018-Jun-12 04:47N 48°33' W 123°01'0 0.0
2018-Jun-12 04:20N 48°33' W 123°01'0 0.0
2018-Jun-12 03:35N 48°33' W 123°01'0 0.0
2018-Jun-12 03:29N 48°33' W 123°01'0 0.0
2018-Jun-12 02:35N 48°33' W 123°01'0 0.0
2018-Jun-12 02:17N 48°33' W 123°01'0 0.0
2018-Jun-12 01:44N 48°33' W 123°01'0 0.0
2018-Jun-12 01:17N 48°33' W 123°01'0 0.0
2018-Jun-12 00:50N 48°33' W 123°01'0 0.0
2018-Jun-12 00:29N 48°33' W 123°01'0 0.0
2018-Jun-11 23:50N 48°33' W 123°01'0 0.0
2018-Jun-11 23:26N 48°33' W 123°01'0 0.0
2018-Jun-11 22:59N 48°33' W 123°01'0 0.0
2018-Jun-11 22:29N 48°33' W 123°01'0 0.0
2018-Jun-11 21:56N 48°33' W 123°01'0 0.0
2018-Jun-11 21:17N 48°33' W 123°01'0 0.0
2018-Jun-11 20:59N 48°33' W 123°01'0 0.0
2018-Jun-11 20:20N 48°33' W 123°01'0 0.0
2018-Jun-11 19:29N 48°33' W 123°01'0 0.0
2018-Jun-11 18:59N 48°33' W 123°01'0 0.0
2018-Jun-11 17:35N 48°33' W 123°01'0 0.0
2018-Jun-11 17:17N 48°33' W 123°01'0 0.0
2018-Jun-11 16:08N 48°33' W 123°01'0 0.0
2018-Jun-11 15:59N 48°33' W 123°01'0 0.0
2018-Jun-11 15:29N 48°33' W 123°01'0 0.0
2018-Jun-11 14:44N 48°33' W 123°01'0 0.0
2018-Jun-11 12:50N 48°33' W 123°01'0 0.0
2018-Jun-11 12:26N 48°33' W 123°01'0 0.0
2018-Jun-11 11:59N 48°33' W 123°01'0 0.0
2018-Jun-11 11:26N 48°33' W 123°01'0 0.0
2018-Jun-11 10:50N 48°33' W 123°01'0 0.0
2018-Jun-11 10:14N 48°33' W 123°01'0 0.0
2018-Jun-11 09:11N 48°33' W 123°01'0 0.0
2018-Jun-11 07:20N 48°33' W 123°01'0 0.0
2018-Jun-11 04:41N 48°33' W 123°01'0 0.0
2018-Jun-11 04:14N 48°33' W 123°01'0 0.0
2018-Jun-11 02:41N 48°33' W 123°01'0 0.0
2018-Jun-11 02:29N 48°33' W 123°01'0 0.0
2018-Jun-11 01:56N 48°33' W 123°01'0 0.0
2018-Jun-11 00:29N 48°33' W 123°01'0 0.0
2018-Jun-10 23:59N 48°33' W 123°01'0 0.0
2018-Jun-10 22:26N 48°33' W 123°01'0 0.0
2018-Jun-10 21:59N 48°33' W 123°01'0 0.0
2018-Jun-10 21:29N 48°33' W 123°01'0 0.0
2018-Jun-10 20:59N 48°33' W 123°01'0 0.0
2018-Jun-10 20:29N 48°33' W 123°01'0 0.0
2018-Jun-10 19:50N 48°33' W 123°01'0 0.0
2018-Jun-10 19:29N 48°33' W 123°01'0 0.0
2018-Jun-10 16:47N 48°33' W 123°01'0 0.0
2018-Jun-10 15:50N 48°33' W 123°01'0 0.0
2018-Jun-10 14:41N 48°33' W 123°01'0 0.0
2018-Jun-10 13:59N 48°33' W 123°01'0 0.0
2018-Jun-10 12:35N 48°33' W 123°01'0 0.0
2018-Jun-10 11:47N 48°33' W 123°01'0 0.0
2018-Jun-10 11:29N 48°33' W 123°01'0 0.0
2018-Jun-10 10:56N 48°33' W 123°01'0 0.0
2018-Jun-10 09:47N 48°33' W 123°01'0 0.0
2018-Jun-10 09:29N 48°33' W 123°01'0 0.0
2018-Jun-10 08:59N 48°33' W 123°01'0 0.0
2018-Jun-10 08:11N 48°33' W 123°01'0 0.0
2018-Jun-10 07:17N 48°33' W 123°01'0 0.0
2018-Jun-10 06:59N 48°33' W 123°01'0 0.0
2018-Jun-10 06:29N 48°33' W 123°01'0 0.0
2018-Jun-10 05:59N 48°33' W 123°01'0 0.0
2018-Jun-10 05:26N 48°33' W 123°01'0 0.0
2018-Jun-10 04:59N 48°33' W 123°01'  

Dump ship's entire track history